sensor_id;sensor_type;location;lat;lon;timestamp;P1;durP1;ratioP1;P2;durP2;ratioP2
40945;SDS011;55635;50.264;11.918;2023-03-14T00:00:20;0.47;;;0.32;;
40945;SDS011;55635;50.264;11.918;2023-03-14T00:03:02;0.50;;;0.50;;
40945;SDS011;55635;50.264;11.918;2023-03-14T00:05:43;0.82;;;0.30;;
40945;SDS011;55635;50.264;11.918;2023-03-14T00:08:24;0.80;;;0.40;;
40945;SDS011;55635;50.264;11.918;2023-03-14T00:11:08;2.17;;;0.65;;
40945;SDS011;55635;50.264;11.918;2023-03-14T00:13:54;0.73;;;0.40;;
40945;SDS011;55635;50.264;11.918;2023-03-14T00:16:35;0.60;;;0.60;;
40945;SDS011;55635;50.264;11.918;2023-03-14T00:19:16;0.38;;;0.30;;
40945;SDS011;55635;50.264;11.918;2023-03-14T00:21:58;0.30;;;0.30;;
40945;SDS011;55635;50.264;11.918;2023-03-14T00:24:39;0.32;;;0.30;;
40945;SDS011;55635;50.264;11.918;2023-03-14T00:27:20;0.88;;;0.30;;
40945;SDS011;55635;50.264;11.918;2023-03-14T00:30:01;0.30;;;0.28;;
40945;SDS011;55635;50.264;11.918;2023-03-14T00:32:42;0.25;;;0.22;;
40945;SDS011;55635;50.264;11.918;2023-03-14T00:35:24;0.40;;;0.30;;
40945;SDS011;55635;50.264;11.918;2023-03-14T00:38:06;0.60;;;0.30;;
40945;SDS011;55635;50.264;11.918;2023-03-14T00:40:48;0.30;;;0.30;;
40945;SDS011;55635;50.264;11.918;2023-03-14T00:43:30;0.20;;;0.20;;
40945;SDS011;55635;50.264;11.918;2023-03-14T00:46:11;0.22;;;0.20;;
40945;SDS011;55635;50.264;11.918;2023-03-14T00:48:53;0.15;;;0.15;;
40945;SDS011;55635;50.264;11.918;2023-03-14T00:51:34;0.22;;;0.20;;
40945;SDS011;55635;50.264;11.918;2023-03-14T00:54:15;0.50;;;0.20;;
40945;SDS011;55635;50.264;11.918;2023-03-14T00:56:56;0.20;;;0.20;;
40945;SDS011;55635;50.264;11.918;2023-03-14T00:59:37;0.20;;;0.20;;
40945;SDS011;55635;50.264;11.918;2023-03-14T01:02:18;0.30;;;0.20;;
40945;SDS011;55635;50.264;11.918;2023-03-14T01:05:00;0.20;;;0.20;;
40945;SDS011;55635;50.264;11.918;2023-03-14T01:07:41;0.20;;;0.20;;
40945;SDS011;55635;50.264;11.918;2023-03-14T01:10:22;0.43;;;0.20;;
40945;SDS011;55635;50.264;11.918;2023-03-14T01:13:03;0.22;;;0.10;;
40945;SDS011;55635;50.264;11.918;2023-03-14T01:15:44;0.13;;;0.10;;
40945;SDS011;55635;50.264;11.918;2023-03-14T01:18:25;0.13;;;0.13;;
40945;SDS011;55635;50.264;11.918;2023-03-14T01:21:14;0.65;;;0.10;;
40945;SDS011;55635;50.264;11.918;2023-03-14T01:24:04;0.20;;;0.20;;
40945;SDS011;55635;50.264;11.918;2023-03-14T01:26:46;1.27;;;0.10;;
40945;SDS011;55635;50.264;11.918;2023-03-14T01:29:27;0.10;;;0.10;;
40945;SDS011;55635;50.264;11.918;2023-03-14T01:32:09;0.75;;;0.10;;
40945;SDS011;55635;50.264;11.918;2023-03-14T01:34:49;0.28;;;0.17;;
40945;SDS011;55635;50.264;11.918;2023-03-14T01:37:31;0.30;;;0.20;;
40945;SDS011;55635;50.264;11.918;2023-03-14T01:40:12;0.30;;;0.25;;
40945;SDS011;55635;50.264;11.918;2023-03-14T01:42:57;0.20;;;0.20;;
40945;SDS011;55635;50.264;11.918;2023-03-14T01:48:50;0.63;;;0.25;;
40945;SDS011;55635;50.264;11.918;2023-03-14T01:54:55;0.30;;;0.30;;
40945;SDS011;55635;50.264;11.918;2023-03-14T01:57:47;1.45;;;0.40;;
40945;SDS011;55635;50.264;11.918;2023-03-14T02:00:37;1.25;;;0.40;;
40945;SDS011;55635;50.264;11.918;2023-03-14T02:03:19;0.30;;;0.30;;
40945;SDS011;55635;50.264;11.918;2023-03-14T02:06:04;0.82;;;0.30;;
40945;SDS011;55635;50.264;11.918;2023-03-14T02:08:50;1.10;;;0.30;;
40945;SDS011;55635;50.264;11.918;2023-03-14T02:11:36;0.40;;;0.40;;
40945;SDS011;55635;50.264;11.918;2023-03-14T02:14:40;1.38;;;0.30;;
40945;SDS011;55635;50.264;11.918;2023-03-14T02:17:50;0.35;;;0.35;;
40945;SDS011;55635;50.264;11.918;2023-03-14T02:24:32;0.57;;;0.28;;
40945;SDS011;55635;50.264;11.918;2023-03-14T02:27:40;0.30;;;0.30;;
40945;SDS011;55635;50.264;11.918;2023-03-14T02:30:22;0.43;;;0.30;;
40945;SDS011;55635;50.264;11.918;2023-03-14T02:33:14;0.50;;;0.25;;
40945;SDS011;55635;50.264;11.918;2023-03-14T02:35:59;1.20;;;0.20;;
40945;SDS011;55635;50.264;11.918;2023-03-14T02:38:53;0.65;;;0.17;;
40945;SDS011;55635;50.264;11.918;2023-03-14T02:42:10;0.25;;;0.20;;
40945;SDS011;55635;50.264;11.918;2023-03-14T02:44:55;1.38;;;0.20;;
40945;SDS011;55635;50.264;11.918;2023-03-14T02:47:50;0.20;;;0.20;;
40945;SDS011;55635;50.264;11.918;2023-03-14T02:50:39;0.38;;;0.20;;
40945;SDS011;55635;50.264;11.918;2023-03-14T02:53:25;1.35;;;0.30;;
40945;SDS011;55635;50.264;11.918;2023-03-14T02:56:16;1.23;;;0.20;;
40945;SDS011;55635;50.264;11.918;2023-03-14T02:58:58;1.25;;;0.28;;
40945;SDS011;55635;50.264;11.918;2023-03-14T03:02:03;0.28;;;0.28;;
40945;SDS011;55635;50.264;11.918;2023-03-14T03:04:45;1.08;;;0.30;;
40945;SDS011;55635;50.264;11.918;2023-03-14T03:07:26;0.57;;;0.28;;
40945;SDS011;55635;50.264;11.918;2023-03-14T03:10:10;0.32;;;0.30;;
40945;SDS011;55635;50.264;11.918;2023-03-14T03:12:52;1.05;;;0.85;;
40945;SDS011;55635;50.264;11.918;2023-03-14T03:15:37;3.25;;;0.40;;
40945;SDS011;55635;50.264;11.918;2023-03-14T03:18:18;0.55;;;0.40;;
40945;SDS011;55635;50.264;11.918;2023-03-14T03:21:00;0.70;;;0.30;;
40945;SDS011;55635;50.264;11.918;2023-03-14T03:23:44;1.75;;;0.30;;
40945;SDS011;55635;50.264;11.918;2023-03-14T03:26:25;0.43;;;0.30;;
40945;SDS011;55635;50.264;11.918;2023-03-14T03:29:06;1.45;;;0.38;;
40945;SDS011;55635;50.264;11.918;2023-03-14T03:31:48;1.20;;;0.20;;
40945;SDS011;55635;50.264;11.918;2023-03-14T03:34:30;0.70;;;0.20;;
40945;SDS011;55635;50.264;11.918;2023-03-14T03:37:11;1.05;;;0.40;;
40945;SDS011;55635;50.264;11.918;2023-03-14T03:39:55;1.45;;;0.40;;
40945;SDS011;55635;50.264;11.918;2023-03-14T03:42:36;0.77;;;0.40;;
40945;SDS011;55635;50.264;11.918;2023-03-14T03:45:19;0.57;;;0.40;;
40945;SDS011;55635;50.264;11.918;2023-03-14T03:48:06;0.60;;;0.35;;
40945;SDS011;55635;50.264;11.918;2023-03-14T03:50:47;1.50;;;0.43;;
40945;SDS011;55635;50.264;11.918;2023-03-14T03:53:31;0.73;;;0.40;;
40945;SDS011;55635;50.264;11.918;2023-03-14T03:56:12;0.50;;;0.50;;
40945;SDS011;55635;50.264;11.918;2023-03-14T03:58:55;1.42;;;0.50;;
40945;SDS011;55635;50.264;11.918;2023-03-14T04:01:38;2.92;;;0.60;;
40945;SDS011;55635;50.264;11.918;2023-03-14T04:04:18;1.30;;;0.65;;
40945;SDS011;55635;50.264;11.918;2023-03-14T04:07:00;1.65;;;0.60;;
40945;SDS011;55635;50.264;11.918;2023-03-14T04:09:41;0.82;;;0.50;;
40945;SDS011;55635;50.264;11.918;2023-03-14T04:12:45;1.60;;;0.50;;
40945;SDS011;55635;50.264;11.918;2023-03-14T04:15:31;3.40;;;0.57;;
40945;SDS011;55635;50.264;11.918;2023-03-14T04:18:17;4.22;;;0.98;;
40945;SDS011;55635;50.264;11.918;2023-03-14T04:20:58;1.00;;;0.60;;
40945;SDS011;55635;50.264;11.918;2023-03-14T04:26:30;0.80;;;0.80;;
40945;SDS011;55635;50.264;11.918;2023-03-14T04:29:11;3.33;;;0.88;;
40945;SDS011;55635;50.264;11.918;2023-03-14T04:31:52;2.08;;;0.80;;
40945;SDS011;55635;50.264;11.918;2023-03-14T04:34:34;2.55;;;0.88;;
40945;SDS011;55635;50.264;11.918;2023-03-14T04:37:15;3.20;;;0.60;;
40945;SDS011;55635;50.264;11.918;2023-03-14T04:39:58;2.05;;;0.90;;
40945;SDS011;55635;50.264;11.918;2023-03-14T04:42:41;1.90;;;0.90;;
40945;SDS011;55635;50.264;11.918;2023-03-14T04:45:23;2.03;;;0.90;;
40945;SDS011;55635;50.264;11.918;2023-03-14T04:48:05;2.97;;;0.82;;
40945;SDS011;55635;50.264;11.918;2023-03-14T04:50:47;1.52;;;0.60;;
40945;SDS011;55635;50.264;11.918;2023-03-14T04:53:29;1.00;;;0.60;;
40945;SDS011;55635;50.264;11.918;2023-03-14T04:56:11;1.48;;;0.50;;
40945;SDS011;55635;50.264;11.918;2023-03-14T04:58:54;4.35;;;0.90;;
40945;SDS011;55635;50.264;11.918;2023-03-14T05:01:35;2.03;;;1.00;;
40945;SDS011;55635;50.264;11.918;2023-03-14T05:04:37;2.83;;;0.65;;
40945;SDS011;55635;50.264;11.918;2023-03-14T05:07:36;5.68;;;1.00;;
40945;SDS011;55635;50.264;11.918;2023-03-14T05:10:28;2.13;;;0.82;;
40945;SDS011;55635;50.264;11.918;2023-03-14T05:13:24;1.80;;;0.70;;
40945;SDS011;55635;50.264;11.918;2023-03-14T05:16:25;1.40;;;0.70;;
40945;SDS011;55635;50.264;11.918;2023-03-14T05:19:23;1.10;;;0.70;;
40945;SDS011;55635;50.264;11.918;2023-03-14T05:22:23;1.05;;;0.63;;
40945;SDS011;55635;50.264;11.918;2023-03-14T05:25:27;3.45;;;1.77;;
40945;SDS011;55635;50.264;11.918;2023-03-14T05:28:39;1.75;;;0.50;;
40945;SDS011;55635;50.264;11.918;2023-03-14T05:31:34;1.05;;;0.60;;
40945;SDS011;55635;50.264;11.918;2023-03-14T05:34:42;2.88;;;0.60;;
40945;SDS011;55635;50.264;11.918;2023-03-14T05:37:46;1.98;;;0.60;;
40945;SDS011;55635;50.264;11.918;2023-03-14T05:40:42;1.55;;;0.57;;
40945;SDS011;55635;50.264;11.918;2023-03-14T05:43:35;4.78;;;0.70;;
40945;SDS011;55635;50.264;11.918;2023-03-14T05:46:34;0.85;;;0.73;;
40945;SDS011;55635;50.264;11.918;2023-03-14T05:49:27;1.75;;;0.65;;
40945;SDS011;55635;50.264;11.918;2023-03-14T05:52:34;2.55;;;0.85;;
40945;SDS011;55635;50.264;11.918;2023-03-14T05:55:28;0.80;;;0.52;;
40945;SDS011;55635;50.264;11.918;2023-03-14T05:58:22;1.50;;;0.57;;
40945;SDS011;55635;50.264;11.918;2023-03-14T06:01:21;1.40;;;0.70;;
40945;SDS011;55635;50.264;11.918;2023-03-14T06:04:23;1.60;;;0.47;;
40945;SDS011;55635;50.264;11.918;2023-03-14T06:07:09;2.35;;;0.70;;
40945;SDS011;55635;50.264;11.918;2023-03-14T06:09:51;1.08;;;0.60;;
40945;SDS011;55635;50.264;11.918;2023-03-14T06:12:33;1.55;;;0.95;;
40945;SDS011;55635;50.264;11.918;2023-03-14T06:15:14;4.88;;;0.60;;
40945;SDS011;55635;50.264;11.918;2023-03-14T06:17:58;2.97;;;0.68;;
40945;SDS011;55635;50.264;11.918;2023-03-14T06:20:40;1.42;;;0.70;;
40945;SDS011;55635;50.264;11.918;2023-03-14T06:23:24;0.57;;;0.57;;
40945;SDS011;55635;50.264;11.918;2023-03-14T06:26:06;1.40;;;0.57;;
40945;SDS011;55635;50.264;11.918;2023-03-14T06:28:47;2.15;;;0.77;;
40945;SDS011;55635;50.264;11.918;2023-03-14T06:31:32;0.82;;;0.80;;
40945;SDS011;55635;50.264;11.918;2023-03-14T06:34:16;1.08;;;0.52;;
40945;SDS011;55635;50.264;11.918;2023-03-14T06:36:58;1.55;;;0.50;;
40945;SDS011;55635;50.264;11.918;2023-03-14T06:39:40;3.10;;;1.00;;
40945;SDS011;55635;50.264;11.918;2023-03-14T06:42:30;0.47;;;0.40;;
40945;SDS011;55635;50.264;11.918;2023-03-14T06:45:11;1.23;;;0.63;;
40945;SDS011;55635;50.264;11.918;2023-03-14T06:47:53;4.38;;;0.80;;
40945;SDS011;55635;50.264;11.918;2023-03-14T06:50:44;0.70;;;0.70;;
40945;SDS011;55635;50.264;11.918;2023-03-14T06:53:25;0.73;;;0.50;;
40945;SDS011;55635;50.264;11.918;2023-03-14T06:56:07;2.92;;;0.90;;
40945;SDS011;55635;50.264;11.918;2023-03-14T06:58:49;1.40;;;0.50;;
40945;SDS011;55635;50.264;11.918;2023-03-14T07:01:33;0.68;;;0.55;;
40945;SDS011;55635;50.264;11.918;2023-03-14T07:04:20;1.83;;;0.60;;
40945;SDS011;55635;50.264;11.918;2023-03-14T07:07:02;1.63;;;0.70;;
40945;SDS011;55635;50.264;11.918;2023-03-14T07:09:47;1.17;;;0.68;;
40945;SDS011;55635;50.264;11.918;2023-03-14T07:12:28;0.85;;;0.68;;
40945;SDS011;55635;50.264;11.918;2023-03-14T07:15:10;0.68;;;0.40;;
40945;SDS011;55635;50.264;11.918;2023-03-14T07:17:51;2.78;;;0.70;;
40945;SDS011;55635;50.264;11.918;2023-03-14T07:20:35;2.10;;;0.60;;
40945;SDS011;55635;50.264;11.918;2023-03-14T07:23:17;3.25;;;0.60;;
40945;SDS011;55635;50.264;11.918;2023-03-14T07:26:03;1.38;;;0.68;;
40945;SDS011;55635;50.264;11.918;2023-03-14T07:28:46;2.55;;;0.65;;
40945;SDS011;55635;50.264;11.918;2023-03-14T07:31:31;0.70;;;0.40;;
40945;SDS011;55635;50.264;11.918;2023-03-14T07:34:13;1.33;;;0.45;;
40945;SDS011;55635;50.264;11.918;2023-03-14T07:36:57;2.45;;;0.47;;
40945;SDS011;55635;50.264;11.918;2023-03-14T07:39:38;3.15;;;0.50;;
40945;SDS011;55635;50.264;11.918;2023-03-14T07:42:25;1.30;;;0.50;;
40945;SDS011;55635;50.264;11.918;2023-03-14T07:45:11;0.98;;;0.50;;
40945;SDS011;55635;50.264;11.918;2023-03-14T07:47:53;0.77;;;0.43;;
40945;SDS011;55635;50.264;11.918;2023-03-14T07:50:37;3.75;;;0.65;;
40945;SDS011;55635;50.264;11.918;2023-03-14T07:53:18;2.67;;;1.08;;
40945;SDS011;55635;50.264;11.918;2023-03-14T07:56:00;1.95;;;0.60;;
40945;SDS011;55635;50.264;11.918;2023-03-14T07:58:41;3.80;;;0.90;;
40945;SDS011;55635;50.264;11.918;2023-03-14T08:01:22;0.85;;;0.50;;
40945;SDS011;55635;50.264;11.918;2023-03-14T08:04:04;2.92;;;0.70;;
40945;SDS011;55635;50.264;11.918;2023-03-14T08:06:48;2.03;;;0.60;;
40945;SDS011;55635;50.264;11.918;2023-03-14T08:09:28;4.32;;;0.82;;
40945;SDS011;55635;50.264;11.918;2023-03-14T08:12:10;2.15;;;0.45;;
40945;SDS011;55635;50.264;11.918;2023-03-14T08:14:51;2.70;;;0.57;;
40945;SDS011;55635;50.264;11.918;2023-03-14T08:17:32;4.78;;;0.30;;
40945;SDS011;55635;50.264;11.918;2023-03-14T08:20:13;1.20;;;0.30;;
40945;SDS011;55635;50.264;11.918;2023-03-14T08:22:57;0.90;;;0.40;;
40945;SDS011;55635;50.264;11.918;2023-03-14T08:25:40;2.15;;;0.70;;
40945;SDS011;55635;50.264;11.918;2023-03-14T08:28:21;3.58;;;0.50;;
40945;SDS011;55635;50.264;11.918;2023-03-14T08:31:10;1.35;;;0.98;;
40945;SDS011;55635;50.264;11.918;2023-03-14T08:33:51;1.95;;;0.68;;
40945;SDS011;55635;50.264;11.918;2023-03-14T08:36:33;1.40;;;0.52;;
40945;SDS011;55635;50.264;11.918;2023-03-14T08:39:14;7.10;;;0.60;;
40945;SDS011;55635;50.264;11.918;2023-03-14T08:41:55;0.30;;;0.30;;
40945;SDS011;55635;50.264;11.918;2023-03-14T08:44:36;2.40;;;0.70;;
40945;SDS011;55635;50.264;11.918;2023-03-14T08:47:18;2.83;;;0.50;;
40945;SDS011;55635;50.264;11.918;2023-03-14T08:49:59;1.15;;;0.40;;
40945;SDS011;55635;50.264;11.918;2023-03-14T08:52:40;1.75;;;0.50;;
40945;SDS011;55635;50.264;11.918;2023-03-14T08:55:21;1.13;;;0.50;;
40945;SDS011;55635;50.264;11.918;2023-03-14T08:58:02;0.98;;;0.50;;
40945;SDS011;55635;50.264;11.918;2023-03-14T09:00:43;2.53;;;0.70;;
40945;SDS011;55635;50.264;11.918;2023-03-14T09:03:24;2.20;;;0.73;;
40945;SDS011;55635;50.264;11.918;2023-03-14T09:06:06;1.90;;;0.50;;
40945;SDS011;55635;50.264;11.918;2023-03-14T09:08:49;0.70;;;0.40;;
40945;SDS011;55635;50.264;11.918;2023-03-14T09:11:30;1.55;;;0.40;;
40945;SDS011;55635;50.264;11.918;2023-03-14T09:14:12;1.02;;;0.50;;
40945;SDS011;55635;50.264;11.918;2023-03-14T09:16:53;3.42;;;0.55;;
40945;SDS011;55635;50.264;11.918;2023-03-14T09:19:34;1.23;;;0.40;;
40945;SDS011;55635;50.264;11.918;2023-03-14T09:22:15;0.88;;;0.30;;
40945;SDS011;55635;50.264;11.918;2023-03-14T09:24:57;1.48;;;0.60;;
40945;SDS011;55635;50.264;11.918;2023-03-14T09:27:38;0.80;;;0.30;;
40945;SDS011;55635;50.264;11.918;2023-03-14T09:30:21;3.45;;;0.60;;
40945;SDS011;55635;50.264;11.918;2023-03-14T09:33:02;2.70;;;0.45;;
40945;SDS011;55635;50.264;11.918;2023-03-14T09:35:43;3.70;;;0.43;;
40945;SDS011;55635;50.264;11.918;2023-03-14T09:38:24;2.72;;;0.50;;
40945;SDS011;55635;50.264;11.918;2023-03-14T09:41:12;1.98;;;0.50;;
40945;SDS011;55635;50.264;11.918;2023-03-14T09:47:17;2.20;;;0.52;;
40945;SDS011;55635;50.264;11.918;2023-03-14T09:50:00;2.03;;;0.57;;
40945;SDS011;55635;50.264;11.918;2023-03-14T09:52:59;3.15;;;0.30;;
40945;SDS011;55635;50.264;11.918;2023-03-14T09:55:45;0.60;;;0.40;;
40945;SDS011;55635;50.264;11.918;2023-03-14T09:58:29;3.38;;;0.77;;
40945;SDS011;55635;50.264;11.918;2023-03-14T10:01:11;0.70;;;0.20;;
40945;SDS011;55635;50.264;11.918;2023-03-14T10:03:58;0.60;;;0.30;;
40945;SDS011;55635;50.264;11.918;2023-03-14T10:06:47;2.55;;;0.30;;
40945;SDS011;55635;50.264;11.918;2023-03-14T10:09:28;1.77;;;0.40;;
40945;SDS011;55635;50.264;11.918;2023-03-14T10:12:09;1.80;;;0.30;;
40945;SDS011;55635;50.264;11.918;2023-03-14T10:14:52;0.88;;;0.30;;
40945;SDS011;55635;50.264;11.918;2023-03-14T10:17:44;1.45;;;0.30;;
40945;SDS011;55635;50.264;11.918;2023-03-14T10:23:27;1.50;;;0.30;;
40945;SDS011;55635;50.264;11.918;2023-03-14T10:26:13;1.20;;;0.32;;
40945;SDS011;55635;50.264;11.918;2023-03-14T10:29:04;0.43;;;0.30;;
40945;SDS011;55635;50.264;11.918;2023-03-14T10:31:56;0.73;;;0.30;;
40945;SDS011;55635;50.264;11.918;2023-03-14T10:35:03;1.25;;;0.60;;
40945;SDS011;55635;50.264;11.918;2023-03-14T10:38:22;1.02;;;0.38;;
40945;SDS011;55635;50.264;11.918;2023-03-14T10:40:57;0.95;;;0.30;;
40945;SDS011;55635;50.264;11.918;2023-03-14T10:43:39;0.63;;;0.40;;
40945;SDS011;55635;50.264;11.918;2023-03-14T10:46:21;2.03;;;0.80;;
40945;SDS011;55635;50.264;11.918;2023-03-14T10:49:34;7.32;;;0.50;;
40945;SDS011;55635;50.264;11.918;2023-03-14T10:52:21;2.08;;;0.22;;
40945;SDS011;55635;50.264;11.918;2023-03-14T10:55:13;1.25;;;0.30;;
40945;SDS011;55635;50.264;11.918;2023-03-14T10:57:54;0.73;;;0.40;;
40945;SDS011;55635;50.264;11.918;2023-03-14T11:00:35;0.70;;;0.32;;
40945;SDS011;55635;50.264;11.918;2023-03-14T11:03:16;2.65;;;0.50;;
40945;SDS011;55635;50.264;11.918;2023-03-14T11:06:11;2.10;;;0.30;;
40945;SDS011;55635;50.264;11.918;2023-03-14T11:25:32;1.30;;;0.63;;
40945;SDS011;55635;50.264;11.918;2023-03-14T11:28:39;0.90;;;0.30;;
40945;SDS011;55635;50.264;11.918;2023-03-14T11:40:17;2.28;;;0.60;;
40945;SDS011;55635;50.264;11.918;2023-03-14T11:43:47;0.73;;;0.40;;
40945;SDS011;55635;50.264;11.918;2023-03-14T11:46:39;1.17;;;0.30;;
40945;SDS011;55635;50.264;11.918;2023-03-14T11:55:27;1.58;;;0.50;;
40945;SDS011;55635;50.264;11.918;2023-03-14T11:58:20;2.22;;;0.60;;
40945;SDS011;55635;50.264;11.918;2023-03-14T12:01:08;1.23;;;0.40;;
40945;SDS011;55635;50.264;11.918;2023-03-14T12:04:02;1.85;;;0.40;;
40945;SDS011;55635;50.264;11.918;2023-03-14T12:07:01;1.20;;;0.57;;
40945;SDS011;55635;50.264;11.918;2023-03-14T12:10:09;1.40;;;0.77;;
40945;SDS011;55635;50.264;11.918;2023-03-14T12:12:50;2.60;;;0.65;;
40945;SDS011;55635;50.264;11.918;2023-03-14T12:15:31;0.82;;;0.50;;
40945;SDS011;55635;50.264;11.918;2023-03-14T12:18:25;0.82;;;0.30;;
40945;SDS011;55635;50.264;11.918;2023-03-14T12:21:13;2.53;;;0.57;;
40945;SDS011;55635;50.264;11.918;2023-03-14T12:23:55;0.93;;;0.60;;
40945;SDS011;55635;50.264;11.918;2023-03-14T12:26:50;1.35;;;0.70;;
40945;SDS011;55635;50.264;11.918;2023-03-14T12:29:51;1.25;;;0.40;;
40945;SDS011;55635;50.264;11.918;2023-03-14T12:32:40;1.70;;;0.55;;
40945;SDS011;55635;50.264;11.918;2023-03-14T12:35:38;4.38;;;0.73;;
40945;SDS011;55635;50.264;11.918;2023-03-14T13:05:21;6.32;;;0.68;;
40945;SDS011;55635;50.264;11.918;2023-03-14T13:08:05;0.50;;;0.30;;
40945;SDS011;55635;50.264;11.918;2023-03-14T13:10:49;1.05;;;0.70;;
40945;SDS011;55635;50.264;11.918;2023-03-14T13:13:30;1.10;;;0.25;;
40945;SDS011;55635;50.264;11.918;2023-03-14T13:16:17;0.45;;;0.30;;
40945;SDS011;55635;50.264;11.918;2023-03-14T13:19:02;1.58;;;0.20;;
40945;SDS011;55635;50.264;11.918;2023-03-14T13:21:51;0.82;;;0.50;;
40945;SDS011;55635;50.264;11.918;2023-03-14T13:24:43;0.70;;;0.40;;
40945;SDS011;55635;50.264;11.918;2023-03-14T13:27:24;1.45;;;0.30;;
40945;SDS011;55635;50.264;11.918;2023-03-14T13:30:13;0.73;;;0.30;;
40945;SDS011;55635;50.264;11.918;2023-03-14T13:32:56;0.70;;;0.20;;
40945;SDS011;55635;50.264;11.918;2023-03-14T13:35:39;0.43;;;0.20;;
40945;SDS011;55635;50.264;11.918;2023-03-14T13:38:27;0.73;;;0.30;;
40945;SDS011;55635;50.264;11.918;2023-03-14T13:41:10;0.77;;;0.30;;
40945;SDS011;55635;50.264;11.918;2023-03-14T13:43:51;1.20;;;0.63;;
40945;SDS011;55635;50.264;11.918;2023-03-14T13:47:15;2.17;;;0.30;;
40945;SDS011;55635;50.264;11.918;2023-03-14T13:49:59;1.08;;;0.30;;
40945;SDS011;55635;50.264;11.918;2023-03-14T13:52:40;1.75;;;0.30;;
40945;SDS011;55635;50.264;11.918;2023-03-14T13:55:21;0.45;;;0.30;;
40945;SDS011;55635;50.264;11.918;2023-03-14T13:58:02;1.38;;;0.45;;
40945;SDS011;55635;50.264;11.918;2023-03-14T14:00:43;0.43;;;0.17;;
40945;SDS011;55635;50.264;11.918;2023-03-14T14:03:44;0.40;;;0.20;;
40945;SDS011;55635;50.264;11.918;2023-03-14T14:06:35;1.02;;;0.20;;
40945;SDS011;55635;50.264;11.918;2023-03-14T14:09:27;0.35;;;0.20;;
40945;SDS011;55635;50.264;11.918;2023-03-14T14:15:44;0.10;;;0.10;;
40945;SDS011;55635;50.264;11.918;2023-03-14T14:18:29;0.20;;;0.10;;
40945;SDS011;55635;50.264;11.918;2023-03-14T14:21:11;0.17;;;0.17;;
40945;SDS011;55635;50.264;11.918;2023-03-14T14:23:53;0.15;;;0.10;;
40945;SDS011;55635;50.264;11.918;2023-03-14T14:26:34;1.20;;;0.20;;
40945;SDS011;55635;50.264;11.918;2023-03-14T14:29:30;0.10;;;0.10;;
40945;SDS011;55635;50.264;11.918;2023-03-14T14:32:13;0.65;;;0.20;;
40945;SDS011;55635;50.264;11.918;2023-03-14T14:37:44;0.40;;;0.20;;
40945;SDS011;55635;50.264;11.918;2023-03-14T14:40:26;0.15;;;0.10;;
40945;SDS011;55635;50.264;11.918;2023-03-14T14:43:10;0.30;;;0.08;;
40945;SDS011;55635;50.264;11.918;2023-03-14T14:46:08;1.35;;;0.10;;
40945;SDS011;55635;50.264;11.918;2023-03-14T14:48:50;0.77;;;0.20;;
40945;SDS011;55635;50.264;11.918;2023-03-14T14:51:40;0.40;;;0.32;;
40945;SDS011;55635;50.264;11.918;2023-03-14T14:54:34;1.55;;;0.20;;
40945;SDS011;55635;50.264;11.918;2023-03-14T15:00:18;2.38;;;0.25;;
40945;SDS011;55635;50.264;11.918;2023-03-14T15:03:02;0.10;;;0.10;;
40945;SDS011;55635;50.264;11.918;2023-03-14T15:05:43;1.65;;;0.10;;
40945;SDS011;55635;50.264;11.918;2023-03-14T15:08:25;0.75;;;0.10;;
40945;SDS011;55635;50.264;11.918;2023-03-14T15:11:14;0.13;;;0.10;;
40945;SDS011;55635;50.264;11.918;2023-03-14T15:14:02;0.60;;;0.30;;
40945;SDS011;55635;50.264;11.918;2023-03-14T15:16:43;1.38;;;0.10;;
40945;SDS011;55635;50.264;11.918;2023-03-14T15:19:25;0.38;;;0.20;;
40945;SDS011;55635;50.264;11.918;2023-03-14T15:22:12;0.28;;;0.13;;
40945;SDS011;55635;50.264;11.918;2023-03-14T15:24:54;0.20;;;0.20;;
40945;SDS011;55635;50.264;11.918;2023-03-14T15:27:35;0.75;;;0.25;;
40945;SDS011;55635;50.264;11.918;2023-03-14T15:30:22;0.30;;;0.20;;
40945;SDS011;55635;50.264;11.918;2023-03-14T15:33:04;0.10;;;0.10;;
40945;SDS011;55635;50.264;11.918;2023-03-14T15:35:48;0.43;;;0.20;;
40945;SDS011;55635;50.264;11.918;2023-03-14T15:38:30;1.20;;;0.20;;
40945;SDS011;55635;50.264;11.918;2023-03-14T15:41:14;0.10;;;0.10;;
40945;SDS011;55635;50.264;11.918;2023-03-14T15:43:55;0.35;;;0.28;;
40945;SDS011;55635;50.264;11.918;2023-03-14T15:46:36;0.17;;;0.17;;
40945;SDS011;55635;50.264;11.918;2023-03-14T15:49:19;0.10;;;0.10;;
40945;SDS011;55635;50.264;11.918;2023-03-14T15:52:00;0.47;;;0.20;;
40945;SDS011;55635;50.264;11.918;2023-03-14T15:54:42;0.50;;;0.10;;
40945;SDS011;55635;50.264;11.918;2023-03-14T15:57:22;0.32;;;0.10;;
40945;SDS011;55635;50.264;11.918;2023-03-14T16:00:04;0.00;;;0.00;;
40945;SDS011;55635;50.264;11.918;2023-03-14T16:02:51;1.00;;;0.08;;
40945;SDS011;55635;50.264;11.918;2023-03-14T16:05:32;0.03;;;0.03;;
40945;SDS011;55635;50.264;11.918;2023-03-14T16:08:13;0.30;;;0.10;;
40945;SDS011;55635;50.264;11.918;2023-03-14T16:10:54;0.28;;;0.20;;
40945;SDS011;55635;50.264;11.918;2023-03-14T16:13:37;0.20;;;0.10;;
40945;SDS011;55635;50.264;11.918;2023-03-14T16:16:18;0.20;;;0.10;;
40945;SDS011;55635;50.264;11.918;2023-03-14T16:18:59;0.35;;;0.13;;
40945;SDS011;55635;50.264;11.918;2023-03-14T16:21:40;0.13;;;0.10;;
40945;SDS011;55635;50.264;11.918;2023-03-14T16:24:22;0.00;;;0.00;;
40945;SDS011;55635;50.264;11.918;2023-03-14T16:27:03;0.10;;;0.10;;
40945;SDS011;55635;50.264;11.918;2023-03-14T16:29:44;0.00;;;0.00;;
40945;SDS011;55635;50.264;11.918;2023-03-14T16:32:27;0.00;;;0.00;;
40945;SDS011;55635;50.264;11.918;2023-03-14T16:35:09;0.88;;;0.10;;
40945;SDS011;55635;50.264;11.918;2023-03-14T16:37:50;0.05;;;0.00;;
40945;SDS011;55635;50.264;11.918;2023-03-14T16:40:31;0.40;;;0.40;;
40945;SDS011;55635;50.264;11.918;2023-03-14T16:43:12;0.17;;;0.10;;
40945;SDS011;55635;50.264;11.918;2023-03-14T16:45:56;0.00;;;0.00;;
40945;SDS011;55635;50.264;11.918;2023-03-14T16:48:38;0.10;;;0.10;;
40945;SDS011;55635;50.264;11.918;2023-03-14T16:51:20;0.45;;;0.45;;
40945;SDS011;55635;50.264;11.918;2023-03-14T16:54:01;0.00;;;0.00;;
40945;SDS011;55635;50.264;11.918;2023-03-14T16:56:43;0.10;;;0.10;;
40945;SDS011;55635;50.264;11.918;2023-03-14T16:59:24;6.20;;;3.25;;
40945;SDS011;55635;50.264;11.918;2023-03-14T17:02:08;2.53;;;2.33;;
40945;SDS011;55635;50.264;11.918;2023-03-14T17:04:50;0.38;;;0.38;;
40945;SDS011;55635;50.264;11.918;2023-03-14T17:07:34;0.88;;;0.40;;
40945;SDS011;55635;50.264;11.918;2023-03-14T17:10:15;32.72;;;23.48;;
40945;SDS011;55635;50.264;11.918;2023-03-14T17:12:57;23.33;;;12.65;;
40945;SDS011;55635;50.264;11.918;2023-03-14T17:15:38;28.33;;;13.35;;
40945;SDS011;55635;50.264;11.918;2023-03-14T17:18:24;11.50;;;8.05;;
40945;SDS011;55635;50.264;11.918;2023-03-14T17:21:05;21.40;;;13.10;;
40945;SDS011;55635;50.264;11.918;2023-03-14T17:23:47;63.20;;;27.38;;
40945;SDS011;55635;50.264;11.918;2023-03-14T17:26:29;31.33;;;15.20;;
40945;SDS011;55635;50.264;11.918;2023-03-14T17:29:10;61.38;;;25.42;;
40945;SDS011;55635;50.264;11.918;2023-03-14T17:31:51;44.83;;;22.15;;
40945;SDS011;55635;50.264;11.918;2023-03-14T17:34:32;68.97;;;30.85;;
40945;SDS011;55635;50.264;11.918;2023-03-14T17:37:16;36.13;;;18.52;;
40945;SDS011;55635;50.264;11.918;2023-03-14T17:39:58;31.80;;;17.98;;
40945;SDS011;55635;50.264;11.918;2023-03-14T17:42:40;14.98;;;13.35;;
40945;SDS011;55635;50.264;11.918;2023-03-14T17:45:22;6.32;;;5.40;;
40945;SDS011;55635;50.264;11.918;2023-03-14T17:48:03;4.30;;;3.45;;